createdAt,value
2023-03-04T00:01:23.154Z,-0.58
2023-03-04T00:04:31.568Z,-0.62
2023-03-04T00:07:39.926Z,-0.64
2023-03-04T00:10:48.165Z,-0.65
2023-03-04T00:13:58.138Z,-0.70
2023-03-04T00:17:07.069Z,-0.73
2023-03-04T00:20:15.914Z,-0.72
2023-03-04T00:23:24.372Z,-0.74
2023-03-04T00:26:32.855Z,-0.69
2023-03-04T00:29:42.481Z,-0.68
2023-03-04T00:32:51.154Z,-0.74
2023-03-04T00:35:59.391Z,-0.74
2023-03-04T00:39:07.661Z,-0.74
2023-03-04T00:42:16.667Z,-0.71
2023-03-04T00:45:26.471Z,-0.63
2023-03-04T00:48:34.752Z,-0.51
2023-03-04T00:51:43.242Z,-0.28
2023-03-04T00:54:51.929Z,-0.07
2023-03-04T00:58:00.532Z,0.05
2023-03-04T01:01:10.351Z,0.10
2023-03-04T01:04:18.794Z,-0.08
2023-03-04T01:07:27.107Z,0.04
2023-03-04T01:10:38.788Z,-0.05
2023-03-04T01:13:46.995Z,0.00
2023-03-04T01:16:56.527Z,0.00
2023-03-04T01:20:08.042Z,0.18
2023-03-04T01:23:17.660Z,0.38
2023-03-04T01:26:25.758Z,0.25
2023-03-04T01:29:34.575Z,0.29
2023-03-04T01:32:45.096Z,0.27
2023-03-04T01:35:53.518Z,0.37
2023-03-04T01:39:01.813Z,0.59
2023-03-04T01:42:19.527Z,0.67
2023-03-04T01:45:28.337Z,0.76
2023-03-04T01:48:39.999Z,0.74
2023-03-04T01:51:52.488Z,1.00
2023-03-04T01:55:01.476Z,1.07
2023-03-04T01:58:13.164Z,0.96
2023-03-04T02:01:21.842Z,0.81
2023-03-04T02:04:35.332Z,0.74
2023-03-04T02:07:44.135Z,0.84
2023-03-04T02:10:55.934Z,0.77
2023-03-04T02:14:04.922Z,0.92
2023-03-04T02:17:14.548Z,0.94
2023-03-04T02:20:49.536Z,0.87
2023-03-04T02:24:15.254Z,0.95
2023-03-04T02:27:25.033Z,0.93
2023-03-04T02:30:33.984Z,0.96
2023-03-04T02:33:42.436Z,0.93
2023-03-04T02:36:53.901Z,0.95
2023-03-04T02:40:02.287Z,0.96
2023-03-04T02:43:13.449Z,0.90
2023-03-04T02:46:22.358Z,0.89
2023-03-04T02:49:33.707Z,0.96
2023-03-04T02:52:42.057Z,0.87
2023-03-04T02:55:50.685Z,0.71
2023-03-04T02:59:02.545Z,0.57
2023-03-04T03:02:11.593Z,0.44
2023-03-04T03:05:21.017Z,0.36
2023-03-04T03:08:30.828Z,0.43
2023-03-04T03:11:39.270Z,0.27
2023-03-04T03:14:49.428Z,0.20
2023-03-04T03:18:00.866Z,0.17
2023-03-04T03:21:09.173Z,0.19
2023-03-04T03:24:18.067Z,0.14
2023-03-04T03:27:26.223Z,0.01
2023-03-04T03:30:36.391Z,-0.09
2023-03-04T03:33:49.392Z,-0.11
2023-03-04T03:36:58.276Z,0.00
2023-03-04T03:40:07.880Z,-0.15
2023-03-04T03:43:16.396Z,-0.25
2023-03-04T03:46:25.893Z,-0.31
2023-03-04T03:49:34.275Z,-0.40
2023-03-04T03:52:42.401Z,-0.36
2023-03-04T03:55:50.514Z,-0.43
2023-03-04T03:58:58.622Z,-0.51
2023-03-04T04:02:08.352Z,-0.55
2023-03-04T04:05:16.735Z,-0.48
2023-03-04T04:08:24.843Z,-0.48
2023-03-04T04:11:32.990Z,-0.48
2023-03-04T04:14:41.473Z,-0.68
2023-03-04T04:17:50.986Z,-0.75
2023-03-04T04:20:59.086Z,-0.79
2023-03-04T04:24:07.363Z,-0.91
2023-03-04T04:27:15.951Z,-0.99
2023-03-04T04:30:24.052Z,-1.09
2023-03-04T04:33:33.495Z,-1.04
2023-03-04T04:36:41.859Z,-1.11
2023-03-04T04:39:51.748Z,-1.16
2023-03-04T04:43:00.132Z,-1.12
2023-03-04T04:46:09.758Z,-1.01
2023-03-04T04:49:19.651Z,-1.05
2023-03-04T04:52:27.842Z,-1.01
2023-03-04T04:55:36.268Z,-0.88
2023-03-04T04:58:45.233Z,-0.82
2023-03-04T05:01:53.411Z,-0.72
2023-03-04T05:05:03.132Z,-0.64
2023-03-04T05:08:11.616Z,-0.63
2023-03-04T05:11:20.942Z,-0.58
2023-03-04T05:14:29.075Z,-0.64
2023-03-04T05:17:37.470Z,-0.67
2023-03-04T05:20:46.966Z,-0.63
2023-03-04T05:23:55.158Z,-0.72
2023-03-04T05:27:03.524Z,-0.69
2023-03-04T05:30:13.778Z,-0.73
2023-03-04T05:33:22.724Z,-0.68
2023-03-04T05:36:32.302Z,-0.60
2023-03-04T05:39:40.457Z,-0.50
2023-03-04T05:42:48.561Z,-0.58
2023-03-04T05:45:56.883Z,-0.48
2023-03-04T05:49:05.017Z,-0.50
2023-03-04T05:52:14.547Z,-0.63
2023-03-04T05:55:22.736Z,-0.62
2023-03-04T05:58:30.887Z,-0.70
2023-03-04T06:01:38.989Z,-0.53
2023-03-04T06:04:47.054Z,-0.73
2023-03-04T06:07:56.499Z,-0.75
2023-03-04T06:11:05.614Z,-0.70
2023-03-04T06:14:13.924Z,-0.58
2023-03-04T06:17:24.104Z,-0.62
2023-03-04T06:20:32.810Z,-0.60
2023-03-04T06:23:42.580Z,-0.64
2023-03-04T06:26:50.774Z,-0.57
2023-03-04T06:29:59.415Z,-0.55
2023-03-04T06:33:07.581Z,-0.45
2023-03-04T06:36:15.814Z,-0.42
2023-03-04T06:39:25.290Z,-0.36
2023-03-04T06:42:33.426Z,-0.27
2023-03-04T06:45:41.800Z,-0.26
2023-03-04T06:48:50.341Z,-0.04
2023-03-04T06:51:58.602Z,-0.08
2023-03-04T06:55:10.434Z,0.12
2023-03-04T06:58:18.696Z,0.29
2023-03-04T07:01:29.679Z,0.33
2023-03-04T07:04:37.895Z,0.37
2023-03-04T07:07:46.047Z,0.63
2023-03-04T07:10:55.518Z,0.68
2023-03-04T07:14:03.708Z,0.91
2023-03-04T07:17:11.939Z,1.06
2023-03-04T07:20:21.734Z,1.17
2023-03-04T07:23:29.875Z,1.29
2023-03-04T07:26:39.904Z,1.58
2023-03-04T07:29:48.046Z,1.94
2023-03-04T07:32:58.902Z,1.92
2023-03-04T07:36:07.633Z,1.78
2023-03-04T07:39:15.968Z,1.83
2023-03-04T07:42:26.092Z,2.00
2023-03-04T07:45:41.074Z,2.36
2023-03-04T07:48:49.196Z,2.58
2023-03-04T07:51:57.361Z,2.56
2023-03-04T07:55:06.344Z,2.50
2023-03-04T07:58:20.006Z,2.73
2023-03-04T08:01:34.620Z,2.88
2023-03-04T08:04:43.454Z,2.98
2023-03-04T08:07:51.768Z,3.04
2023-03-04T08:11:00.005Z,3.26
2023-03-04T08:14:10.302Z,3.48
2023-03-04T08:17:18.682Z,3.54
2023-03-04T08:20:26.900Z,3.52
2023-03-04T08:23:35.058Z,3.56
2023-03-04T08:26:46.592Z,3.50
2023-03-04T08:29:56.110Z,3.67
2023-03-04T08:33:05.176Z,3.62
2023-03-04T08:36:13.540Z,3.73
2023-03-04T08:39:22.093Z,3.85
2023-03-04T08:42:30.188Z,3.64
2023-03-04T08:45:39.628Z,3.42
2023-03-04T08:48:47.817Z,3.41
2023-03-04T08:51:56.068Z,3.48
2023-03-04T08:55:04.524Z,3.54
2023-03-04T08:58:12.935Z,3.77
2023-03-04T09:01:22.850Z,3.80
2023-03-04T09:04:31.171Z,3.77
2023-03-04T09:07:39.626Z,3.84
2023-03-04T09:10:48.672Z,4.03
2023-03-04T09:13:57.032Z,4.10
2023-03-04T09:17:07.249Z,3.68
2023-03-04T09:20:15.645Z,4.06
2023-03-04T09:23:24.276Z,4.13
2023-03-04T09:26:32.433Z,4.23
2023-03-04T09:29:40.692Z,4.40
2023-03-04T09:32:50.895Z,4.31
2023-03-04T09:35:59.560Z,4.50
2023-03-04T09:39:08.208Z,4.31
2023-03-04T09:42:29.107Z,4.50
2023-03-04T09:45:45.711Z,4.51
2023-03-04T09:48:57.730Z,4.74
2023-03-04T09:52:21.789Z,4.60
2023-03-04T09:55:38.226Z,4.22
2023-03-04T09:59:02.937Z,4.59
2023-03-04T10:02:26.873Z,4.72
2023-03-04T10:05:45.208Z,5.23
2023-03-04T10:09:01.169Z,5.37
2023-03-04T10:12:16.684Z,5.06
2023-03-04T10:15:35.145Z,5.21
2023-03-04T10:18:50.950Z,5.14
2023-03-04T10:22:00.974Z,5.53
2023-03-04T10:25:19.672Z,5.65
2023-03-04T10:28:31.557Z,5.67
2023-03-04T10:31:42.173Z,5.64
2023-03-04T10:34:50.572Z,5.72
2023-03-04T10:38:05.081Z,6.04
2023-03-04T10:41:17.897Z,6.07
2023-03-04T10:44:26.748Z,6.38
2023-03-04T10:47:35.277Z,6.55
2023-03-04T10:50:43.410Z,6.62
2023-03-04T10:53:59.616Z,6.42
2023-03-04T10:57:18.191Z,6.44
2023-03-04T11:00:33.449Z,6.32
2023-03-04T11:03:50.359Z,6.61
2023-03-04T11:06:59.542Z,6.76
2023-03-04T11:10:20.398Z,6.73
2023-03-04T11:13:29.163Z,6.52
2023-03-04T11:16:37.787Z,6.60
2023-03-04T11:19:52.419Z,6.97
2023-03-04T11:23:06.609Z,7.05
2023-03-04T11:26:22.563Z,6.94
2023-03-04T11:29:38.501Z,6.68
2023-03-04T11:32:52.605Z,6.48
2023-03-04T11:36:19.753Z,6.37
2023-03-04T11:39:38.175Z,6.09
2023-03-04T11:42:55.183Z,6.26
2023-03-04T11:46:36.660Z,6.10
2023-03-04T11:50:21.459Z,5.90
2023-03-04T11:53:52.868Z,6.28
2023-03-04T11:57:08.822Z,6.53
2023-03-04T12:00:41.447Z,6.04
2023-03-04T12:04:39.127Z,6.00
2023-03-04T12:08:38.796Z,6.03
2023-03-04T12:12:01.292Z,6.30
2023-03-04T12:15:22.164Z,6.42
2023-03-04T12:18:55.857Z,6.21
2023-03-04T12:22:31.119Z,6.50
2023-03-04T12:25:45.543Z,6.58
2023-03-04T12:29:05.278Z,6.28
2023-03-04T12:32:23.552Z,6.30
2023-03-04T12:35:41.901Z,6.27
2023-03-04T12:39:27.323Z,6.44
2023-03-04T12:42:57.652Z,6.56
2023-03-04T12:46:23.515Z,6.63
2023-03-04T12:49:52.940Z,6.81
2023-03-04T12:53:19.203Z,6.59
2023-03-04T12:56:39.126Z,6.58
2023-03-04T12:59:57.898Z,6.83
2023-03-04T13:03:15.872Z,6.67
2023-03-04T13:06:40.784Z,6.73
2023-03-04T13:09:58.495Z,6.98
2023-03-04T13:13:07.472Z,7.33
2023-03-04T13:16:33.687Z,7.05
2023-03-04T13:19:57.121Z,6.80
2023-03-04T13:23:26.410Z,7.09
2023-03-04T13:26:37.452Z,6.85
2023-03-04T13:29:45.685Z,6.71
2023-03-04T13:32:53.886Z,6.85
2023-03-04T13:36:06.161Z,7.21
2023-03-04T13:39:31.722Z,7.05
2023-03-04T13:42:43.695Z,6.72
2023-03-04T13:45:52.354Z,6.37
2023-03-04T13:49:05.503Z,6.23
2023-03-04T13:52:42.436Z,6.22
2023-03-04T13:56:31.401Z,6.43
2023-03-04T13:59:46.374Z,6.53
2023-03-04T14:02:54.486Z,6.50
2023-03-04T14:06:21.271Z,6.67
2023-03-04T14:09:43.603Z,6.49
2023-03-04T14:12:56.897Z,6.43
2023-03-04T14:16:07.131Z,6.27
2023-03-04T14:19:24.105Z,6.23
2023-03-04T14:22:34.927Z,6.31
2023-03-04T14:25:43.297Z,6.07
2023-03-04T14:28:57.696Z,5.97
2023-03-04T14:32:09.063Z,6.11
2023-03-04T14:35:25.409Z,6.08
2023-03-04T14:38:41.659Z,5.99
2023-03-04T14:41:52.660Z,5.94
2023-03-04T14:45:03.906Z,5.86
2023-03-04T14:48:24.302Z,5.70
2023-03-04T14:51:42.694Z,5.64
2023-03-04T14:55:03.460Z,5.72
2023-03-04T14:58:22.379Z,5.58
2023-03-04T15:01:35.450Z,5.64
2023-03-04T15:04:45.944Z,5.52
2023-03-04T15:07:58.347Z,5.57
2023-03-04T15:11:09.714Z,5.47
2023-03-04T15:14:45.028Z,5.17
2023-03-04T15:18:00.309Z,5.07
2023-03-04T15:21:36.763Z,4.74
2023-03-04T15:24:45.143Z,4.68
2023-03-04T15:27:54.517Z,4.64
2023-03-04T15:31:02.887Z,4.66
2023-03-04T15:34:15.368Z,4.20
2023-03-04T15:37:29.008Z,4.13
2023-03-04T15:40:40.181Z,3.93
2023-03-04T15:43:48.460Z,4.04
2023-03-04T15:46:56.875Z,4.09
2023-03-04T15:50:05.680Z,4.14
2023-03-04T15:53:23.470Z,4.03
2023-03-04T15:56:34.894Z,3.73
2023-03-04T15:59:43.206Z,3.42
2023-03-04T16:02:52.038Z,3.03
2023-03-04T16:06:00.710Z,2.87
2023-03-04T16:09:16.656Z,2.79
2023-03-04T16:12:28.002Z,2.74
2023-03-04T16:15:36.281Z,2.71
2023-03-04T16:18:45.178Z,2.66
2023-03-04T16:21:53.907Z,2.53
2023-03-04T16:25:04.003Z,2.50
2023-03-04T16:28:13.561Z,2.41
2023-03-04T16:31:23.453Z,2.30
2023-03-04T16:34:31.892Z,2.16
2023-03-04T16:37:40.812Z,2.01
2023-03-04T16:40:50.594Z,1.84
2023-03-04T16:44:00.790Z,1.67
2023-03-04T16:47:09.107Z,1.52
2023-03-04T16:50:19.918Z,1.37
2023-03-04T16:53:34.669Z,1.23
2023-03-04T16:56:44.295Z,1.13
2023-03-04T16:59:52.568Z,0.98
2023-03-04T17:03:02.351Z,0.91
2023-03-04T17:06:12.503Z,0.81
2023-03-04T17:09:20.830Z,0.76
2023-03-04T17:12:30.555Z,0.83
2023-03-04T17:15:38.845Z,0.77
2023-03-04T17:18:47.449Z,0.84
2023-03-04T17:21:57.847Z,0.97
2023-03-04T17:25:07.406Z,1.02
2023-03-04T17:28:16.952Z,1.13
2023-03-04T17:31:25.155Z,1.11
2023-03-04T17:34:33.800Z,1.15
2023-03-04T17:37:42.099Z,1.12
2023-03-04T17:40:50.186Z,1.02
2023-03-04T17:43:59.708Z,1.00
2023-03-04T17:47:08.012Z,0.92
2023-03-04T17:50:16.251Z,0.94
2023-03-04T17:53:24.606Z,0.82
2023-03-04T17:56:34.933Z,0.76
2023-03-04T17:59:44.444Z,0.45
2023-03-04T18:02:52.666Z,0.47
2023-03-04T18:06:00.776Z,0.45
2023-03-04T18:09:10.042Z,0.48
2023-03-04T18:12:18.203Z,0.53
2023-03-04T18:15:28.090Z,0.56
2023-03-04T18:18:37.121Z,0.52
2023-03-04T18:21:45.220Z,0.59
2023-03-04T18:24:53.533Z,0.66
2023-03-04T18:28:04.753Z,0.71
2023-03-04T18:31:14.380Z,0.72
2023-03-04T18:34:22.575Z,0.68
2023-03-04T18:37:31.081Z,0.54
2023-03-04T18:40:43.141Z,0.42
2023-03-04T18:43:52.035Z,0.40
2023-03-04T18:47:01.732Z,0.46
2023-03-04T18:50:11.854Z,0.50
2023-03-04T18:53:20.508Z,0.51
2023-03-04T18:56:38.145Z,0.27
2023-03-04T18:59:52.234Z,0.22
2023-03-04T19:03:10.394Z,-0.13
2023-03-04T19:06:20.063Z,-0.11
2023-03-04T19:09:28.405Z,0.00
2023-03-04T19:16:05.816Z,-0.08
2023-03-04T19:19:15.625Z,-0.19
2023-03-04T19:22:23.753Z,-0.18
2023-03-04T19:25:32.150Z,-0.33
2023-03-04T19:28:40.702Z,-0.27
2023-03-04T19:31:48.996Z,-0.16
2023-03-04T19:34:58.499Z,-0.20
2023-03-04T19:38:06.772Z,-0.36
2023-03-04T19:41:17.984Z,-0.32
2023-03-04T19:44:26.425Z,-0.32
2023-03-04T19:47:34.545Z,-0.32
2023-03-04T19:50:44.220Z,-0.34
2023-03-04T19:53:54.545Z,-0.27
2023-03-04T19:57:02.960Z,-0.26
2023-03-04T20:00:13.397Z,-0.22
2023-03-04T20:03:26.696Z,-0.20
2023-03-04T20:06:38.419Z,-0.20
2023-03-04T20:09:46.703Z,-0.06
2023-03-04T20:12:56.329Z,-0.09
2023-03-04T20:16:09.296Z,-0.05
2023-03-04T20:19:18.231Z,-0.04
2023-03-04T20:22:28.181Z,-0.10
2023-03-04T20:25:37.334Z,-0.08
2023-03-04T20:28:45.590Z,-0.22
2023-03-04T20:31:54.019Z,-0.15
2023-03-04T20:35:02.282Z,-0.18
2023-03-04T20:38:12.457Z,-0.14
2023-03-04T20:41:21.331Z,-0.18
2023-03-04T20:44:29.830Z,-0.25
2023-03-04T20:47:39.738Z,-0.16
2023-03-04T20:50:48.760Z,-0.11
2023-03-04T20:53:59.038Z,-0.16
2023-03-04T20:57:10.758Z,-0.10
2023-03-04T21:00:19.853Z,-0.28
2023-03-04T21:03:29.082Z,-0.22
2023-03-04T21:06:38.898Z,-0.24
2023-03-04T21:09:48.802Z,-0.29
2023-03-04T21:12:57.024Z,-0.28
2023-03-04T21:16:06.213Z,-0.29
2023-03-04T21:19:17.953Z,-0.31
2023-03-04T21:22:26.910Z,-0.36
2023-03-04T21:25:36.329Z,-0.40
2023-03-04T21:28:44.920Z,-0.33
2023-03-04T21:31:56.596Z,-0.30
2023-03-04T21:35:05.664Z,-0.28
2023-03-04T21:38:14.081Z,-0.24
2023-03-04T21:41:25.395Z,-0.25
2023-03-04T21:44:48.186Z,-0.27
2023-03-04T21:47:57.697Z,-0.24
2023-03-04T21:51:09.341Z,-0.25
2023-03-04T21:54:17.884Z,-0.31
2023-03-04T21:57:27.773Z,-0.40
2023-03-04T22:00:36.189Z,-0.20
2023-03-04T22:03:44.366Z,-0.14
2023-03-04T22:06:52.546Z,-0.36
2023-03-04T22:10:03.033Z,-0.17
2023-03-04T22:13:15.532Z,-0.24
2023-03-04T22:16:24.206Z,-0.14
2023-03-04T22:19:34.729Z,-0.18
2023-03-04T22:22:42.895Z,-0.21
2023-03-04T22:25:51.433Z,-0.38
2023-03-04T22:29:02.988Z,-0.27
2023-03-04T22:32:11.128Z,-0.22
2023-03-04T22:35:20.674Z,-0.25
2023-03-04T22:38:28.759Z,-0.22
2023-03-04T22:41:37.512Z,-0.48
2023-03-04T22:44:46.975Z,-0.40
2023-03-04T22:47:55.640Z,-0.30
2023-03-04T22:51:07.423Z,-0.32
2023-03-04T22:54:18.308Z,-0.47
2023-03-04T22:57:26.429Z,-0.41
2023-03-04T23:00:38.124Z,-0.51
2023-03-04T23:03:48.336Z,-0.44
2023-03-04T23:06:56.848Z,-0.49
2023-03-04T23:10:08.528Z,-0.39
2023-03-04T23:13:17.119Z,-0.22
2023-03-04T23:16:28.556Z,-0.13
2023-03-04T23:19:36.689Z,-0.25
2023-03-04T23:22:45.619Z,-0.16
2023-03-04T23:25:54.193Z,-0.16
2023-03-04T23:29:06.137Z,-0.18
2023-03-04T23:32:16.143Z,-0.13
2023-03-04T23:35:24.947Z,-0.10
2023-03-04T23:38:34.680Z,-0.27
2023-03-04T23:41:44.105Z,-0.18
2023-03-04T23:44:52.930Z,-0.01
2023-03-04T23:48:02.666Z,-0.02
2023-03-04T23:51:12.118Z,-0.12
2023-03-04T23:54:20.907Z,-0.06
2023-03-04T23:57:29.556Z,-0.06
